sensor_id;sensor_type;location;lat;lon;timestamp;pressure;altitude;pressure_sealevel;temperature;humidity
39891;BME280;25564;53.312;9.790;2023-12-22T00:00:31;98340.28;;;4.37;100.00
39891;BME280;25564;53.312;9.790;2023-12-22T00:03:03;98351.53;;;4.41;100.00
39891;BME280;25564;53.312;9.790;2023-12-22T00:05:34;98350.59;;;4.43;100.00
39891;BME280;25564;53.312;9.790;2023-12-22T00:08:06;98366.16;;;4.49;100.00
39891;BME280;25564;53.312;9.790;2023-12-22T00:10:37;98373.03;;;4.53;100.00
39891;BME280;25564;53.312;9.790;2023-12-22T00:13:09;98376.28;;;4.62;100.00
39891;BME280;25564;53.312;9.790;2023-12-22T00:15:40;98372.56;;;4.69;100.00
39891;BME280;25564;53.312;9.790;2023-12-22T00:18:13;98390.72;;;4.76;100.00
39891;BME280;25564;53.312;9.790;2023-12-22T00:20:45;98389.75;;;4.79;100.00
39891;BME280;25564;53.312;9.790;2023-12-22T00:23:16;98385.31;;;4.81;100.00
39891;BME280;25564;53.312;9.790;2023-12-22T00:25:48;98401.03;;;4.82;100.00
39891;BME280;25564;53.312;9.790;2023-12-22T00:28:19;98398.63;;;4.75;100.00
39891;BME280;25564;53.312;9.790;2023-12-22T00:30:51;98413.78;;;4.67;100.00
39891;BME280;25564;53.312;9.790;2023-12-22T00:33:22;98410.53;;;4.58;100.00
39891;BME280;25564;53.312;9.790;2023-12-22T00:35:53;98411.44;;;4.57;100.00
39891;BME280;25564;53.312;9.790;2023-12-22T00:38:25;98414.41;;;4.45;100.00
39891;BME280;25564;53.312;9.790;2023-12-22T00:40:56;98423.38;;;4.38;100.00
39891;BME280;25564;53.312;9.790;2023-12-22T00:43:27;98428.00;;;4.30;100.00
39891;BME280;25564;53.312;9.790;2023-12-22T00:45:59;98423.09;;;4.18;100.00
39891;BME280;25564;53.312;9.790;2023-12-22T00:48:30;98434.19;;;3.98;100.00
39891;BME280;25564;53.312;9.790;2023-12-22T00:51:02;98433.53;;;3.90;100.00
39891;BME280;25564;53.312;9.790;2023-12-22T00:53:34;98441.69;;;3.79;100.00
39891;BME280;25564;53.312;9.790;2023-12-22T00:56:05;98415.63;;;3.73;100.00
39891;BME280;25564;53.312;9.790;2023-12-22T00:58:37;98426.28;;;3.67;100.00
39891;BME280;25564;53.312;9.790;2023-12-22T01:01:09;98409.97;;;3.56;100.00
39891;BME280;25564;53.312;9.790;2023-12-22T01:03:40;98427.66;;;3.48;100.00
39891;BME280;25564;53.312;9.790;2023-12-22T01:06:11;98422.38;;;3.49;100.00
39891;BME280;25564;53.312;9.790;2023-12-22T01:08:43;98397.03;;;3.50;100.00
39891;BME280;25564;53.312;9.790;2023-12-22T01:11:14;98395.44;;;3.44;100.00
39891;BME280;25564;53.312;9.790;2023-12-22T01:13:46;98394.13;;;3.26;100.00
39891;BME280;25564;53.312;9.790;2023-12-22T01:16:17;98407.44;;;3.19;100.00
39891;BME280;25564;53.312;9.790;2023-12-22T01:18:52;98411.94;;;3.14;100.00
39891;BME280;25564;53.312;9.790;2023-12-22T01:21:24;98412.63;;;3.20;100.00
39891;BME280;25564;53.312;9.790;2023-12-22T01:23:55;98413.22;;;3.32;100.00
39891;BME280;25564;53.312;9.790;2023-12-22T01:26:26;98407.91;;;3.35;100.00
39891;BME280;25564;53.312;9.790;2023-12-22T01:28:58;98424.47;;;3.37;100.00
39891;BME280;25564;53.312;9.790;2023-12-22T01:31:30;98432.31;;;3.37;100.00
39891;BME280;25564;53.312;9.790;2023-12-22T01:34:02;98423.50;;;3.41;100.00
39891;BME280;25564;53.312;9.790;2023-12-22T01:36:35;98407.53;;;3.50;100.00
39891;BME280;25564;53.312;9.790;2023-12-22T01:39:06;98415.25;;;3.54;100.00
39891;BME280;25564;53.312;9.790;2023-12-22T01:41:40;98414.31;;;3.57;100.00
39891;BME280;25564;53.312;9.790;2023-12-22T01:44:11;98398.59;;;3.57;100.00
39891;BME280;25564;53.312;9.790;2023-12-22T01:46:42;98409.56;;;3.71;100.00
39891;BME280;25564;53.312;9.790;2023-12-22T01:49:14;98395.25;;;3.83;100.00
39891;BME280;25564;53.312;9.790;2023-12-22T01:51:46;98392.34;;;3.93;100.00
39891;BME280;25564;53.312;9.790;2023-12-22T01:54:18;98398.22;;;4.02;100.00
39891;BME280;25564;53.312;9.790;2023-12-22T01:56:50;98398.78;;;4.13;100.00
39891;BME280;25564;53.312;9.790;2023-12-22T01:59:21;98396.63;;;4.25;100.00
39891;BME280;25564;53.312;9.790;2023-12-22T02:01:53;98367.53;;;4.33;100.00
39891;BME280;25564;53.312;9.790;2023-12-22T02:04:25;98382.19;;;4.40;100.00
39891;BME280;25564;53.312;9.790;2023-12-22T02:06:58;98382.72;;;4.51;100.00
39891;BME280;25564;53.312;9.790;2023-12-22T02:09:32;98385.94;;;4.61;100.00
39891;BME280;25564;53.312;9.790;2023-12-22T02:12:03;98386.69;;;4.65;100.00
39891;BME280;25564;53.312;9.790;2023-12-22T02:14:35;98383.16;;;4.66;100.00
39891;BME280;25564;53.312;9.790;2023-12-22T02:25:05;98402.63;;;4.58;100.00
39891;BME280;25564;53.312;9.790;2023-12-22T02:27:47;98398.25;;;4.59;100.00
39891;BME280;25564;53.312;9.790;2023-12-22T02:30:31;98397.25;;;4.63;100.00
39891;BME280;25564;53.312;9.790;2023-12-22T02:33:05;98398.91;;;4.66;100.00
39891;BME280;25564;53.312;9.790;2023-12-22T02:35:38;98383.25;;;4.63;100.00
39891;BME280;25564;53.312;9.790;2023-12-22T02:38:12;98392.84;;;4.64;100.00
39891;BME280;25564;53.312;9.790;2023-12-22T02:40:44;98374.47;;;4.64;100.00
39891;BME280;25564;53.312;9.790;2023-12-22T02:43:16;98375.63;;;4.55;100.00
39891;BME280;25564;53.312;9.790;2023-12-22T02:45:51;98372.22;;;4.51;100.00
39891;BME280;25564;53.312;9.790;2023-12-22T02:48:22;98350.59;;;4.43;100.00
39891;BME280;25564;53.312;9.790;2023-12-22T02:50:54;98354.22;;;4.39;100.00
39891;BME280;25564;53.312;9.790;2023-12-22T02:53:25;98357.50;;;4.46;100.00
39891;BME280;25564;53.312;9.790;2023-12-22T02:55:57;98340.66;;;4.53;100.00
39891;BME280;25564;53.312;9.790;2023-12-22T02:58:28;98338.84;;;4.55;100.00
39891;BME280;25564;53.312;9.790;2023-12-22T03:01:00;98326.81;;;4.48;100.00
39891;BME280;25564;53.312;9.790;2023-12-22T03:03:31;98338.09;;;4.51;100.00
39891;BME280;25564;53.312;9.790;2023-12-22T03:06:03;98344.34;;;4.47;100.00
39891;BME280;25564;53.312;9.790;2023-12-22T03:08:34;98343.34;;;4.51;100.00
39891;BME280;25564;53.312;9.790;2023-12-22T03:11:06;98351.03;;;4.57;100.00
39891;BME280;25564;53.312;9.790;2023-12-22T03:13:37;98347.09;;;4.71;100.00
39891;BME280;25564;53.312;9.790;2023-12-22T03:16:09;98352.06;;;4.80;100.00
39891;BME280;25564;53.312;9.790;2023-12-22T03:18:41;98359.75;;;4.86;100.00
39891;BME280;25564;53.312;9.790;2023-12-22T03:21:18;98361.06;;;4.99;100.00
39891;BME280;25564;53.312;9.790;2023-12-22T03:23:50;98376.63;;;5.05;100.00
39891;BME280;25564;53.312;9.790;2023-12-22T03:26:21;98440.19;;;4.90;100.00
39891;BME280;25564;53.312;9.790;2023-12-22T03:28:53;98442.94;;;4.57;100.00
39891;BME280;25564;53.312;9.790;2023-12-22T03:31:24;98431.25;;;4.38;100.00
39891;BME280;25564;53.312;9.790;2023-12-22T03:33:56;98423.84;;;4.23;100.00
39891;BME280;25564;53.312;9.790;2023-12-22T03:36:27;98386.56;;;4.12;100.00
39891;BME280;25564;53.312;9.790;2023-12-22T03:38:58;98392.34;;;3.93;100.00
39891;BME280;25564;53.312;9.790;2023-12-22T03:41:30;98396.25;;;3.79;100.00
39891;BME280;25564;53.312;9.790;2023-12-22T03:44:01;98402.53;;;3.73;100.00
39891;BME280;25564;53.312;9.790;2023-12-22T03:46:33;98420.88;;;3.73;100.00
39891;BME280;25564;53.312;9.790;2023-12-22T03:49:05;98404.03;;;3.82;100.00
39891;BME280;25564;53.312;9.790;2023-12-22T03:51:38;98413.59;;;3.84;100.00
39891;BME280;25564;53.312;9.790;2023-12-22T03:54:09;98413.75;;;3.78;100.00
39891;BME280;25564;53.312;9.790;2023-12-22T03:56:41;98438.41;;;3.71;100.00
39891;BME280;25564;53.312;9.790;2023-12-22T03:59:12;98421.88;;;3.69;100.00
39891;BME280;25564;53.312;9.790;2023-12-22T04:01:44;98410.56;;;3.67;100.00
39891;BME280;25564;53.312;9.790;2023-12-22T04:04:21;98414.06;;;3.66;100.00
39891;BME280;25564;53.312;9.790;2023-12-22T04:06:54;98422.03;;;3.63;100.00
39891;BME280;25564;53.312;9.790;2023-12-22T04:09:25;98409.16;;;3.54;100.00
39891;BME280;25564;53.312;9.790;2023-12-22T04:11:57;98413.47;;;3.56;100.00
39891;BME280;25564;53.312;9.790;2023-12-22T04:14:28;98413.53;;;3.53;100.00
39891;BME280;25564;53.312;9.790;2023-12-22T04:16:59;98418.75;;;3.55;100.00
39891;BME280;25564;53.312;9.790;2023-12-22T04:19:31;98416.94;;;3.57;100.00
39891;BME280;25564;53.312;9.790;2023-12-22T04:22:03;98412.53;;;3.59;100.00
39891;BME280;25564;53.312;9.790;2023-12-22T04:24:34;98408.84;;;3.66;100.00
39891;BME280;25564;53.312;9.790;2023-12-22T04:27:05;98417.28;;;3.77;100.00
39891;BME280;25564;53.312;9.790;2023-12-22T04:29:37;98418.56;;;3.93;100.00
39891;BME280;25564;53.312;9.790;2023-12-22T04:32:08;98412.91;;;4.09;100.00
39891;BME280;25564;53.312;9.790;2023-12-22T04:34:39;98429.09;;;4.23;100.00
39891;BME280;25564;53.312;9.790;2023-12-22T04:37:11;98434.94;;;4.33;100.00
39891;BME280;25564;53.312;9.790;2023-12-22T04:39:43;98415.41;;;4.41;100.00
39891;BME280;25564;53.312;9.790;2023-12-22T04:42:14;98409.97;;;4.47;100.00
39891;BME280;25564;53.312;9.790;2023-12-22T04:44:45;98411.16;;;4.37;100.00
39891;BME280;25564;53.312;9.790;2023-12-22T04:47:17;98411.44;;;4.28;100.00
39891;BME280;25564;53.312;9.790;2023-12-22T04:49:48;98415.00;;;4.25;100.00
39891;BME280;25564;53.312;9.790;2023-12-22T04:52:20;98408.81;;;4.28;100.00
39891;BME280;25564;53.312;9.790;2023-12-22T04:54:51;98422.38;;;4.42;100.00
39891;BME280;25564;53.312;9.790;2023-12-22T04:57:23;98428.19;;;4.53;100.00
39891;BME280;25564;53.312;9.790;2023-12-22T04:59:54;98428.09;;;4.56;100.00
39891;BME280;25564;53.312;9.790;2023-12-22T05:02:25;98439.38;;;4.60;100.00
39891;BME280;25564;53.312;9.790;2023-12-22T05:04:57;98439.31;;;4.62;100.00
39891;BME280;25564;53.312;9.790;2023-12-22T05:07:29;98409.81;;;4.53;100.00
39891;BME280;25564;53.312;9.790;2023-12-22T05:10:01;98451.38;;;4.39;100.00
39891;BME280;25564;53.312;9.790;2023-12-22T05:12:32;98411.69;;;4.19;100.00
39891;BME280;25564;53.312;9.790;2023-12-22T05:15:04;98468.00;;;4.09;100.00
39891;BME280;25564;53.312;9.790;2023-12-22T05:17:36;98456.88;;;4.01;100.00
39891;BME280;25564;53.312;9.790;2023-12-22T05:20:07;98456.00;;;4.00;100.00
39891;BME280;25564;53.312;9.790;2023-12-22T05:22:41;98461.41;;;3.94;100.00
39891;BME280;25564;53.312;9.790;2023-12-22T05:25:16;98457.03;;;3.94;100.00
39891;BME280;25564;53.312;9.790;2023-12-22T05:27:48;98459.78;;;3.90;100.00
39891;BME280;25564;53.312;9.790;2023-12-22T05:30:20;98465.88;;;3.90;100.00
39891;BME280;25564;53.312;9.790;2023-12-22T05:32:51;98454.56;;;3.88;100.00
39891;BME280;25564;53.312;9.790;2023-12-22T05:35:23;98463.56;;;3.80;100.00
39891;BME280;25564;53.312;9.790;2023-12-22T05:37:54;98463.72;;;3.74;100.00
39891;BME280;25564;53.312;9.790;2023-12-22T05:40:26;98469.97;;;3.68;100.00
39891;BME280;25564;53.312;9.790;2023-12-22T05:42:57;98470.22;;;3.59;100.00
39891;BME280;25564;53.312;9.790;2023-12-22T05:45:29;98476.34;;;3.58;100.00
39891;BME280;25564;53.312;9.790;2023-12-22T05:48:00;98457.22;;;3.54;100.00
39891;BME280;25564;53.312;9.790;2023-12-22T05:50:32;98459.97;;;3.50;100.00
39891;BME280;25564;53.312;9.790;2023-12-22T05:53:03;98447.78;;;3.47;100.00
39891;BME280;25564;53.312;9.790;2023-12-22T05:55:35;98452.22;;;3.45;100.00
39891;BME280;25564;53.312;9.790;2023-12-22T05:58:08;98461.72;;;3.49;100.00
39891;BME280;25564;53.312;9.790;2023-12-22T06:00:39;98454.63;;;3.53;100.00
39891;BME280;25564;53.312;9.790;2023-12-22T06:03:11;98443.16;;;3.57;100.00
39891;BME280;25564;53.312;9.790;2023-12-22T06:05:42;98457.91;;;3.61;100.00
39891;BME280;25564;53.312;9.790;2023-12-22T06:08:15;98468.00;;;3.76;100.00
39891;BME280;25564;53.312;9.790;2023-12-22T06:10:46;98480.69;;;3.93;100.00
39891;BME280;25564;53.312;9.790;2023-12-22T06:13:17;98474.13;;;4.09;100.00
39891;BME280;25564;53.312;9.790;2023-12-22T06:15:49;98521.84;;;4.22;100.00
39891;BME280;25564;53.312;9.790;2023-12-22T06:18:20;98550.75;;;4.22;100.00
39891;BME280;25564;53.312;9.790;2023-12-22T06:20:52;98542.78;;;3.92;100.00
39891;BME280;25564;53.312;9.790;2023-12-22T06:23:23;98537.69;;;3.52;100.00
39891;BME280;25564;53.312;9.790;2023-12-22T06:25:55;98513.50;;;3.40;100.00
39891;BME280;25564;53.312;9.790;2023-12-22T06:28:26;98545.84;;;3.40;100.00
39891;BME280;25564;53.312;9.790;2023-12-22T06:30:58;98584.38;;;3.37;100.00
39891;BME280;25564;53.312;9.790;2023-12-22T06:33:29;98613.59;;;3.18;100.00
39891;BME280;25564;53.312;9.790;2023-12-22T06:36:01;98592.88;;;3.09;100.00
39891;BME280;25564;53.312;9.790;2023-12-22T06:38:33;98538.84;;;3.04;100.00
39891;BME280;25564;53.312;9.790;2023-12-22T06:41:04;98562.53;;;2.99;100.00
39891;BME280;25564;53.312;9.790;2023-12-22T06:43:36;98559.94;;;2.98;100.00
39891;BME280;25564;53.312;9.790;2023-12-22T06:46:14;98581.75;;;2.98;100.00
39891;BME280;25564;53.312;9.790;2023-12-22T06:48:47;98560.81;;;2.98;100.00
39891;BME280;25564;53.312;9.790;2023-12-22T06:51:25;98574.78;;;2.97;100.00
39891;BME280;25564;53.312;9.790;2023-12-22T06:53:58;98573.19;;;2.90;100.00
39891;BME280;25564;53.312;9.790;2023-12-22T06:56:34;98575.84;;;2.88;100.00
39891;BME280;25564;53.312;9.790;2023-12-22T06:59:06;98578.38;;;2.93;100.00
39891;BME280;25564;53.312;9.790;2023-12-22T07:01:38;98584.41;;;2.97;100.00
39891;BME280;25564;53.312;9.790;2023-12-22T07:04:09;98589.38;;;3.09;100.00
39891;BME280;25564;53.312;9.790;2023-12-22T07:06:40;98575.88;;;3.25;100.00
39891;BME280;25564;53.312;9.790;2023-12-22T07:11:51;98579.59;;;3.54;100.00
39891;BME280;25564;53.312;9.790;2023-12-22T07:14:24;98582.00;;;3.63;100.00
39891;BME280;25564;53.312;9.790;2023-12-22T07:16:55;98602.13;;;3.63;100.00
39891;BME280;25564;53.312;9.790;2023-12-22T07:19:29;98593.44;;;3.60;100.00
39891;BME280;25564;53.312;9.790;2023-12-22T07:22:00;98612.72;;;3.58;100.00
39891;BME280;25564;53.312;9.790;2023-12-22T07:24:33;98603.19;;;3.54;100.00
39891;BME280;25564;53.312;9.790;2023-12-22T07:27:04;98607.50;;;3.56;100.00
39891;BME280;25564;53.312;9.790;2023-12-22T07:29:36;98611.88;;;3.56;100.00
39891;BME280;25564;53.312;9.790;2023-12-22T07:32:08;98611.88;;;3.56;100.00
39891;BME280;25564;53.312;9.790;2023-12-22T07:34:40;98615.34;;;3.58;100.00
39891;BME280;25564;53.312;9.790;2023-12-22T07:37:12;98610.88;;;3.61;100.00
39891;BME280;25564;53.312;9.790;2023-12-22T07:39:43;98618.66;;;3.66;100.00
39891;BME280;25564;53.312;9.790;2023-12-22T07:42:16;98626.38;;;3.72;100.00
39891;BME280;25564;53.312;9.790;2023-12-22T07:44:47;98623.38;;;3.87;100.00
39891;BME280;25564;53.312;9.790;2023-12-22T07:47:19;98662.34;;;4.04;100.00
39891;BME280;25564;53.312;9.790;2023-12-22T07:49:50;98664.69;;;4.15;100.00
39891;BME280;25564;53.312;9.790;2023-12-22T07:52:23;98687.78;;;4.01;100.00
39891;BME280;25564;53.312;9.790;2023-12-22T07:54:54;98747.72;;;3.80;100.00
39891;BME280;25564;53.312;9.790;2023-12-22T07:57:27;98676.44;;;3.61;100.00
39891;BME280;25564;53.312;9.790;2023-12-22T07:59:58;98678.53;;;3.46;100.00
39891;BME280;25564;53.312;9.790;2023-12-22T08:02:29;98690.22;;;3.31;100.00
39891;BME280;25564;53.312;9.790;2023-12-22T08:05:01;98696.59;;;3.18;100.00
39891;BME280;25564;53.312;9.790;2023-12-22T08:07:32;98698.41;;;3.16;100.00
39891;BME280;25564;53.312;9.790;2023-12-22T08:10:04;98701.88;;;3.16;100.00
39891;BME280;25564;53.312;9.790;2023-12-22T08:12:35;98703.66;;;3.14;100.00
39891;BME280;25564;53.312;9.790;2023-12-22T08:15:07;98693.19;;;3.14;100.00
39891;BME280;25564;53.312;9.790;2023-12-22T08:17:47;98715.81;;;3.18;100.00
39891;BME280;25564;53.312;9.790;2023-12-22T08:20:20;98704.47;;;3.18;100.00
39891;BME280;25564;53.312;9.790;2023-12-22T08:22:59;98711.34;;;3.23;100.00
39891;BME280;25564;53.312;9.790;2023-12-22T08:25:37;98693.66;;;3.33;100.00
39891;BME280;25564;53.312;9.790;2023-12-22T08:28:11;98713.56;;;3.43;100.00
39891;BME280;25564;53.312;9.790;2023-12-22T08:30:44;98714.22;;;3.53;100.00
39891;BME280;25564;53.312;9.790;2023-12-22T08:33:15;98702.56;;;3.66;100.00
39891;BME280;25564;53.312;9.790;2023-12-22T08:35:47;98718.03;;;3.78;100.00
39891;BME280;25564;53.312;9.790;2023-12-22T08:38:18;98723.00;;;3.90;100.00
39891;BME280;25564;53.312;9.790;2023-12-22T08:40:49;98721.00;;;4.02;100.00
39891;BME280;25564;53.312;9.790;2023-12-22T08:43:23;98713.81;;;4.10;100.00
39891;BME280;25564;53.312;9.790;2023-12-22T08:45:54;98715.28;;;4.20;100.00
39891;BME280;25564;53.312;9.790;2023-12-22T08:48:26;98718.63;;;4.26;100.00
39891;BME280;25564;53.312;9.790;2023-12-22T08:50:59;98723.53;;;4.40;100.00
39891;BME280;25564;53.312;9.790;2023-12-22T08:53:33;98729.31;;;4.54;100.00
39891;BME280;25564;53.312;9.790;2023-12-22T08:56:07;98738.78;;;4.62;100.00
39891;BME280;25564;53.312;9.790;2023-12-22T08:58:39;98723.34;;;4.82;100.00
39891;BME280;25564;53.312;9.790;2023-12-22T09:01:15;98728.00;;;5.05;100.00
39891;BME280;25564;53.312;9.790;2023-12-22T09:03:47;98713.66;;;5.16;100.00
39891;BME280;25564;53.312;9.790;2023-12-22T09:06:20;98730.75;;;5.31;100.00
39891;BME280;25564;53.312;9.790;2023-12-22T09:08:53;98729.44;;;5.46;100.00
39891;BME280;25564;53.312;9.790;2023-12-22T09:11:25;98746.78;;;5.53;100.00
39891;BME280;25564;53.312;9.790;2023-12-22T09:13:57;98735.13;;;5.62;100.00
39891;BME280;25564;53.312;9.790;2023-12-22T09:16:29;98741.94;;;5.69;100.00
39891;BME280;25564;53.312;9.790;2023-12-22T09:19:01;98739.22;;;5.72;100.00
39891;BME280;25564;53.312;9.790;2023-12-22T09:21:32;98738.22;;;5.76;100.00
39891;BME280;25564;53.312;9.790;2023-12-22T09:24:04;98743.19;;;5.85;100.00
39891;BME280;25564;53.312;9.790;2023-12-22T09:26:36;98742.09;;;5.94;100.00
39891;BME280;25564;53.312;9.790;2023-12-22T09:29:08;98747.84;;;6.06;100.00
39891;BME280;25564;53.312;9.790;2023-12-22T09:31:39;98756.28;;;6.17;100.00
39891;BME280;25564;53.312;9.790;2023-12-22T09:34:12;98753.38;;;6.25;100.00
39891;BME280;25564;53.312;9.790;2023-12-22T09:36:44;98756.66;;;6.32;100.00
39891;BME280;25564;53.312;9.790;2023-12-22T09:39:15;98776.88;;;6.31;100.00
39891;BME280;25564;53.312;9.790;2023-12-22T09:41:49;98776.16;;;6.26;100.00
39891;BME280;25564;53.312;9.790;2023-12-22T09:44:21;98772.16;;;6.14;100.00
39891;BME280;25564;53.312;9.790;2023-12-22T09:46:54;98779.47;;;6.05;100.00
39891;BME280;25564;53.312;9.790;2023-12-22T09:49:27;98783.22;;;5.98;100.00
39891;BME280;25564;53.312;9.790;2023-12-22T09:51:59;98773.59;;;5.97;100.00
39891;BME280;25564;53.312;9.790;2023-12-22T09:54:32;98789.97;;;6.06;100.00
39891;BME280;25564;53.312;9.790;2023-12-22T09:57:05;98782.59;;;6.17;100.00
39891;BME280;25564;53.312;9.790;2023-12-22T09:59:53;98778.09;;;6.21;100.00
39891;BME280;25564;53.312;9.790;2023-12-22T10:02:25;98775.34;;;6.24;100.00
39891;BME280;25564;53.312;9.790;2023-12-22T10:04:59;98777.78;;;6.30;100.00
39891;BME280;25564;53.312;9.790;2023-12-22T10:07:31;98768.06;;;6.32;100.00
39891;BME280;25564;53.312;9.790;2023-12-22T10:10:03;98787.28;;;6.36;100.00
39891;BME280;25564;53.312;9.790;2023-12-22T10:12:36;98795.31;;;6.31;100.00
39891;BME280;25564;53.312;9.790;2023-12-22T10:15:08;98799.31;;;6.16;100.00
39891;BME280;25564;53.312;9.790;2023-12-22T10:17:41;98791.63;;;5.79;100.00
39891;BME280;25564;53.312;9.790;2023-12-22T10:20:12;98816.31;;;5.12;100.00
39891;BME280;25564;53.312;9.790;2023-12-22T10:22:45;98820.03;;;4.69;100.00
39891;BME280;25564;53.312;9.790;2023-12-22T10:25:20;98818.66;;;4.53;100.00
39891;BME280;25564;53.312;9.790;2023-12-22T10:27:53;98840.09;;;4.35;100.00
39891;BME280;25564;53.312;9.790;2023-12-22T10:30:25;98819.44;;;4.19;100.00
39891;BME280;25564;53.312;9.790;2023-12-22T10:32:57;98820.53;;;4.11;100.00
39891;BME280;25564;53.312;9.790;2023-12-22T10:35:29;98811.97;;;4.03;100.00
39891;BME280;25564;53.312;9.790;2023-12-22T10:38:00;98824.38;;;3.94;100.00
39891;BME280;25564;53.312;9.790;2023-12-22T10:40:37;98871.03;;;3.80;100.00
39891;BME280;25564;53.312;9.790;2023-12-22T10:43:08;98843.50;;;3.58;100.00
39891;BME280;25564;53.312;9.790;2023-12-22T10:45:40;98823.66;;;3.43;100.00
39891;BME280;25564;53.312;9.790;2023-12-22T10:48:11;98824.59;;;3.41;100.00
39891;BME280;25564;53.312;9.790;2023-12-22T10:50:43;98816.66;;;3.44;100.00
39891;BME280;25564;53.312;9.790;2023-12-22T10:53:15;98827.03;;;3.50;100.00
39891;BME280;25564;53.312;9.790;2023-12-22T10:55:49;98820.09;;;3.47;100.00
39891;BME280;25564;53.312;9.790;2023-12-22T10:58:21;98813.06;;;3.49;100.00
39891;BME280;25564;53.312;9.790;2023-12-22T11:00:53;98819.03;;;3.57;100.00
39891;BME280;25564;53.312;9.790;2023-12-22T11:03:26;98807.44;;;3.68;100.00
39891;BME280;25564;53.312;9.790;2023-12-22T11:06:02;98798.34;;;3.85;100.00
39891;BME280;25564;53.312;9.790;2023-12-22T11:08:35;98801.47;;;4.03;100.00
39891;BME280;25564;53.312;9.790;2023-12-22T11:11:14;98811.69;;;4.15;100.00
39891;BME280;25564;53.312;9.790;2023-12-22T11:13:47;98804.38;;;4.27;100.00
39891;BME280;25564;53.312;9.790;2023-12-22T11:16:20;98794.56;;;4.36;100.00
39891;BME280;25564;53.312;9.790;2023-12-22T11:18:53;98799.72;;;4.39;100.00
39891;BME280;25564;53.312;9.790;2023-12-22T11:21:28;98808.66;;;4.32;100.00
39891;BME280;25564;53.312;9.790;2023-12-22T11:24:01;98793.75;;;4.32;100.00
39891;BME280;25564;53.312;9.790;2023-12-22T11:26:34;98794.47;;;4.39;100.00
39891;BME280;25564;53.312;9.790;2023-12-22T11:29:06;98794.91;;;4.57;100.00
39891;BME280;25564;53.312;9.790;2023-12-22T11:31:38;98792.50;;;4.84;100.00
39891;BME280;25564;53.312;9.790;2023-12-22T11:34:12;98786.69;;;5.05;100.00
39891;BME280;25564;53.312;9.790;2023-12-22T11:36:48;98782.72;;;5.21;100.00
39891;BME280;25564;53.312;9.790;2023-12-22T11:39:21;98787.56;;;5.37;100.00
39891;BME280;25564;53.312;9.790;2023-12-22T11:41:54;98782.22;;;5.40;100.00
39891;BME280;25564;53.312;9.790;2023-12-22T11:44:27;98794.03;;;5.56;100.00
39891;BME280;25564;53.312;9.790;2023-12-22T11:47:09;98789.97;;;5.75;100.00
39891;BME280;25564;53.312;9.790;2023-12-22T11:49:41;98783.13;;;5.70;100.00
39891;BME280;25564;53.312;9.790;2023-12-22T11:52:14;98798.22;;;5.63;100.00
39891;BME280;25564;53.312;9.790;2023-12-22T11:54:51;98790.59;;;5.54;100.00
39891;BME280;25564;53.312;9.790;2023-12-22T12:00:02;98789.91;;;5.16;100.00
39891;BME280;25564;53.312;9.790;2023-12-22T12:02:35;98804.44;;;4.97;100.00
39891;BME280;25564;53.312;9.790;2023-12-22T12:05:09;98796.91;;;4.83;100.00
39891;BME280;25564;53.312;9.790;2023-12-22T12:07:45;98792.53;;;4.82;100.00
39891;BME280;25564;53.312;9.790;2023-12-22T12:10:52;98782.22;;;4.75;100.00
39891;BME280;25564;53.312;9.790;2023-12-22T12:13:15;98773.28;;;4.82;100.00
39891;BME280;25564;53.312;9.790;2023-12-22T12:15:50;98780.00;;;4.93;100.00
39891;BME280;25564;53.312;9.790;2023-12-22T12:18:22;98783.25;;;5.03;100.00
39891;BME280;25564;53.312;9.790;2023-12-22T12:20:57;98782.31;;;5.06;100.00
39891;BME280;25564;53.312;9.790;2023-12-22T12:23:28;98770.84;;;5.08;100.00
39891;BME280;25564;53.312;9.790;2023-12-22T12:26:00;98788.09;;;5.18;100.00
39891;BME280;25564;53.312;9.790;2023-12-22T12:28:33;98784.66;;;5.16;100.00
39891;BME280;25564;53.312;9.790;2023-12-22T12:31:06;98777.75;;;5.12;100.00
39891;BME280;25564;53.312;9.790;2023-12-22T12:33:37;98761.44;;;5.00;100.00
39891;BME280;25564;53.312;9.790;2023-12-22T12:36:09;98761.44;;;5.00;100.00
39891;BME280;25564;53.312;9.790;2023-12-22T12:38:48;98774.44;;;5.04;100.00
39891;BME280;25564;53.312;9.790;2023-12-22T12:41:29;98758.75;;;5.01;100.00
39891;BME280;25564;53.312;9.790;2023-12-22T12:44:06;98750.84;;;5.03;100.00
39891;BME280;25564;53.312;9.790;2023-12-22T12:46:39;98742.03;;;5.04;100.00
39891;BME280;25564;53.312;9.790;2023-12-22T12:49:14;98742.81;;;5.07;100.00
39891;BME280;25564;53.312;9.790;2023-12-22T12:51:50;98750.66;;;5.09;100.00
39891;BME280;25564;53.312;9.790;2023-12-22T12:54:22;98746.34;;;5.06;100.00
39891;BME280;25564;53.312;9.790;2023-12-22T12:56:53;98742.91;;;5.04;100.00
39891;BME280;25564;53.312;9.790;2023-12-22T12:59:25;98758.63;;;5.06;100.00
39891;BME280;25564;53.312;9.790;2023-12-22T13:01:57;98749.84;;;5.07;100.00
39891;BME280;25564;53.312;9.790;2023-12-22T13:04:38;98760.28;;;5.10;100.00
39891;BME280;25564;53.312;9.790;2023-12-22T13:07:10;98756.88;;;5.06;100.00
39891;BME280;25564;53.312;9.790;2023-12-22T13:09:44;98735.84;;;5.06;100.00
39891;BME280;25564;53.312;9.790;2023-12-22T13:12:15;98746.19;;;5.12;100.00
39891;BME280;25564;53.312;9.790;2023-12-22T13:14:48;98735.59;;;5.15;100.00
39891;BME280;25564;53.312;9.790;2023-12-22T13:17:20;98747.75;;;5.19;100.00
39891;BME280;25564;53.312;9.790;2023-12-22T13:19:51;98739.66;;;5.25;100.00
39891;BME280;25564;53.312;9.790;2023-12-22T13:22:23;98743.94;;;5.30;100.00
39891;BME280;25564;53.312;9.790;2023-12-22T13:24:56;98735.06;;;5.34;100.00
39891;BME280;25564;53.312;9.790;2023-12-22T13:27:29;98739.44;;;5.33;100.00
39891;BME280;25564;53.312;9.790;2023-12-22T13:30:00;98739.28;;;5.39;100.00
39891;BME280;25564;53.312;9.790;2023-12-22T13:32:32;98725.22;;;5.40;100.00
39891;BME280;25564;53.312;9.790;2023-12-22T13:35:06;98744.38;;;5.45;100.00
39891;BME280;25564;53.312;9.790;2023-12-22T13:37:41;98744.22;;;5.50;100.00
39891;BME280;25564;53.312;9.790;2023-12-22T13:40:14;98743.25;;;5.54;100.00